createdAt,value
2022-08-09T00:01:58.847Z,1008.05
2022-08-09T00:12:06.522Z,1008.03
2022-08-09T00:22:13.342Z,1008.11
2022-08-09T00:32:26.781Z,1008.12
2022-08-09T00:44:15.000Z,1008.13
2022-08-09T00:52:43.671Z,1008.21
2022-08-09T01:02:49.520Z,1008.15
2022-08-09T01:12:56.790Z,1008.15
2022-08-09T01:23:04.001Z,1008.13
2022-08-09T01:33:16.869Z,1008.19
2022-08-09T01:43:24.216Z,1008.25
2022-08-09T01:53:41.332Z,1008.33
2022-08-09T02:03:43.441Z,1008.32
2022-08-09T02:13:55.310Z,1008.43
2022-08-09T02:24:03.689Z,1008.56
2022-08-09T02:34:13.284Z,1008.57
2022-08-09T02:44:30.428Z,1008.63
2022-08-09T02:54:31.629Z,1008.58
2022-08-09T03:04:37.400Z,1008.59
2022-08-09T03:14:45.715Z,1008.64
2022-08-09T03:25:05.818Z,1008.69
2022-08-09T03:35:02.918Z,1008.70
2022-08-09T03:45:13.478Z,1008.77
2022-08-09T03:55:19.692Z,1008.81
2022-08-09T04:05:28.370Z,1008.88
2022-08-09T04:16:18.317Z,1008.91
2022-08-09T04:25:51.662Z,1009.11
2022-08-09T04:35:58.918Z,1009.23
2022-08-09T04:46:04.831Z,1009.29
2022-08-09T04:56:11.113Z,1009.35
2022-08-09T05:06:21.816Z,1009.44
2022-08-09T05:16:31.502Z,1009.42
2022-08-09T05:26:45.948Z,1009.47
2022-08-09T05:36:50.786Z,1009.57
2022-08-09T05:46:59.825Z,1009.65
2022-08-09T05:57:07.030Z,1009.80
2022-08-09T06:07:21.483Z,1009.84
2022-08-09T06:17:28.060Z,1009.92
2022-08-09T06:27:42.718Z,1009.97
2022-08-09T06:37:53.303Z,1009.97
2022-08-09T06:48:01.476Z,1009.96
2022-08-09T06:58:07.507Z,1009.95
2022-08-09T07:08:18.453Z,1009.96
2022-08-09T07:18:24.930Z,1010.01
2022-08-09T07:28:34.923Z,1009.93
2022-08-09T07:38:42.184Z,1009.98
2022-08-09T07:48:58.847Z,1009.92
2022-08-09T07:58:59.420Z,1009.82
2022-08-09T08:09:07.808Z,1009.86
2022-08-09T08:19:17.366Z,1009.81
2022-08-09T08:29:27.662Z,1009.77
2022-08-09T08:39:39.842Z,1009.75
2022-08-09T08:49:47.855Z,1009.65
2022-08-09T08:59:57.428Z,1009.60
2022-08-09T09:10:09.937Z,1009.54
2022-08-09T09:20:15.946Z,1009.62
2022-08-09T09:30:41.232Z,1009.52
2022-08-09T09:40:34.251Z,1009.47
2022-08-09T09:50:49.271Z,1009.43
2022-08-09T10:00:55.527Z,1009.32
2022-08-09T10:11:30.883Z,1009.19
2022-08-09T10:21:15.199Z,1009.20
2022-08-09T10:41:33.163Z,1009.05
2022-08-09T10:51:43.035Z,1009.07
2022-08-09T11:03:15.879Z,1008.93
2022-08-09T11:12:01.270Z,1008.93
2022-08-09T11:22:21.559Z,1008.92
2022-08-09T11:32:23.799Z,1008.83
2022-08-09T11:42:33.168Z,1008.74
2022-08-09T11:53:03.411Z,1008.88
2022-08-09T12:02:53.497Z,1008.76
2022-08-09T12:13:03.661Z,1008.80
2022-08-09T12:23:12.626Z,1008.66
2022-08-09T12:33:23.679Z,1008.75
2022-08-09T12:44:05.612Z,1008.63
2022-08-09T12:53:52.804Z,1008.61
2022-08-09T13:03:59.251Z,1008.59
2022-08-09T13:14:42.230Z,1008.57
2022-08-09T13:24:52.631Z,1008.52
2022-08-09T13:34:31.574Z,1008.54
2022-08-09T13:44:38.035Z,1008.51
2022-08-09T13:54:58.887Z,1008.46
2022-08-09T14:05:00.733Z,1008.31
2022-08-09T14:16:06.349Z,1008.31
2022-08-09T14:25:18.250Z,1008.47
2022-08-09T14:35:38.686Z,1008.18
2022-08-09T14:46:51.327Z,1008.26
2022-08-09T14:55:51.248Z,1008.34
2022-08-09T15:06:01.547Z,1008.32
2022-08-09T15:16:08.730Z,1008.15
2022-08-09T15:26:19.327Z,1008.19
2022-08-09T15:36:29.218Z,1008.17
2022-08-09T15:46:35.927Z,1008.11
2022-08-09T15:56:46.378Z,1008.16
2022-08-09T16:06:55.719Z,1008.03
2022-08-09T16:17:02.443Z,1008.05
2022-08-09T16:27:08.154Z,1008.05
2022-08-09T16:37:18.543Z,1008.05
2022-08-09T16:48:40.193Z,1007.98
2022-08-09T16:58:08.211Z,1007.98
2022-08-09T17:08:45.475Z,1008.01
2022-08-09T17:18:00.910Z,1008.03
2022-08-09T17:28:07.494Z,1008.01
2022-08-09T17:38:30.992Z,1008.08
2022-08-09T17:48:29.151Z,1008.09
2022-08-09T17:58:35.554Z,1008.08
2022-08-09T18:08:41.606Z,1008.24
2022-08-09T18:18:49.317Z,1008.29
2022-08-09T18:30:38.040Z,1008.33
2022-08-09T18:39:15.929Z,1008.40
2022-08-09T18:49:19.709Z,1008.58
2022-08-09T18:59:27.490Z,1008.73
2022-08-09T19:10:13.815Z,1008.82
2022-08-09T19:19:49.581Z,1008.98
2022-08-09T19:30:23.790Z,1008.94
2022-08-09T19:40:17.145Z,1009.03
2022-08-09T19:50:50.186Z,1009.11
2022-08-09T20:00:37.940Z,1009.15
2022-08-09T20:10:44.857Z,1009.23
2022-08-09T20:20:55.113Z,1009.26
2022-08-09T20:31:02.916Z,1009.23
2022-08-09T20:41:11.600Z,1009.29
2022-08-09T20:51:19.544Z,1009.29
2022-08-09T21:01:34.217Z,1009.33
2022-08-09T21:21:53.757Z,1009.43
2022-08-09T21:32:02.250Z,1009.49
2022-08-09T21:42:13.389Z,1009.55
2022-08-09T21:52:20.497Z,1009.54
2022-08-09T22:02:35.944Z,1009.60
2022-08-09T22:12:38.928Z,1009.57
2022-08-09T22:22:45.400Z,1009.65
2022-08-09T22:32:54.516Z,1009.60
2022-08-09T22:43:00.612Z,1009.63
2022-08-09T22:53:06.856Z,1009.75
2022-08-09T23:03:16.345Z,1009.72
2022-08-09T23:13:27.506Z,1009.73
2022-08-09T23:23:35.052Z,1009.75
2022-08-09T23:33:41.268Z,1009.66
2022-08-09T23:43:49.339Z,1009.59
2022-08-09T23:54:03.089Z,1009.62
